sensor_id;sensor_type;location;lat;lon;timestamp;P1;durP1;ratioP1;P2;durP2;ratioP2
14316;SDS011;7242;50.858;6.586;2023-02-01T00:01:14;15.83;;;7.33;;
14316;SDS011;7242;50.858;6.586;2023-02-01T00:04:15;17.63;;;6.83;;
14316;SDS011;7242;50.858;6.586;2023-02-01T00:07:16;15.07;;;6.83;;
14316;SDS011;7242;50.858;6.586;2023-02-01T00:10:17;13.80;;;5.60;;
14316;SDS011;7242;50.858;6.586;2023-02-01T00:13:18;14.53;;;6.23;;
14316;SDS011;7242;50.858;6.586;2023-02-01T00:16:20;9.40;;;5.00;;
14316;SDS011;7242;50.858;6.586;2023-02-01T00:19:23;14.80;;;6.07;;
14316;SDS011;7242;50.858;6.586;2023-02-01T00:22:24;13.57;;;5.30;;
14316;SDS011;7242;50.858;6.586;2023-02-01T00:25:25;14.37;;;6.07;;
14316;SDS011;7242;50.858;6.586;2023-02-01T00:28:25;14.90;;;5.53;;
14316;SDS011;7242;50.858;6.586;2023-02-01T00:31:26;17.37;;;5.33;;
14316;SDS011;7242;50.858;6.586;2023-02-01T00:34:27;18.50;;;5.37;;
14316;SDS011;7242;50.858;6.586;2023-02-01T00:37:27;13.60;;;5.13;;
14316;SDS011;7242;50.858;6.586;2023-02-01T00:40:28;16.10;;;5.73;;
14316;SDS011;7242;50.858;6.586;2023-02-01T00:43:32;15.93;;;4.83;;
14316;SDS011;7242;50.858;6.586;2023-02-01T00:46:34;14.20;;;4.57;;
14316;SDS011;7242;50.858;6.586;2023-02-01T00:49:35;11.77;;;4.87;;
14316;SDS011;7242;50.858;6.586;2023-02-01T00:52:35;13.10;;;4.83;;
14316;SDS011;7242;50.858;6.586;2023-02-01T00:55:37;10.07;;;4.60;;
14316;SDS011;7242;50.858;6.586;2023-02-01T00:58:37;14.40;;;5.37;;
14316;SDS011;7242;50.858;6.586;2023-02-01T01:01:39;15.37;;;5.57;;
14316;SDS011;7242;50.858;6.586;2023-02-01T01:04:40;18.57;;;5.90;;
14316;SDS011;7242;50.858;6.586;2023-02-01T01:07:40;17.10;;;5.90;;
14316;SDS011;7242;50.858;6.586;2023-02-01T01:10:42;13.03;;;6.43;;
14316;SDS011;7242;50.858;6.586;2023-02-01T01:13:45;15.10;;;6.97;;
14316;SDS011;7242;50.858;6.586;2023-02-01T01:16:47;15.43;;;6.93;;
14316;SDS011;7242;50.858;6.586;2023-02-01T01:19:50;16.60;;;6.70;;
14316;SDS011;7242;50.858;6.586;2023-02-01T01:22:51;16.63;;;6.90;;
14316;SDS011;7242;50.858;6.586;2023-02-01T01:25:52;18.80;;;6.90;;
14316;SDS011;7242;50.858;6.586;2023-02-01T01:28:57;17.10;;;6.50;;
14316;SDS011;7242;50.858;6.586;2023-02-01T01:31:58;15.73;;;6.60;;
14316;SDS011;7242;50.858;6.586;2023-02-01T01:34:59;13.27;;;6.47;;
14316;SDS011;7242;50.858;6.586;2023-02-01T01:38:00;14.07;;;6.43;;
14316;SDS011;7242;50.858;6.586;2023-02-01T01:41:02;22.00;;;7.30;;
14316;SDS011;7242;50.858;6.586;2023-02-01T01:44:04;17.93;;;7.53;;
14316;SDS011;7242;50.858;6.586;2023-02-01T01:47:07;17.07;;;7.20;;
14316;SDS011;7242;50.858;6.586;2023-02-01T01:50:08;17.83;;;7.17;;
14316;SDS011;7242;50.858;6.586;2023-02-01T01:53:11;16.67;;;6.70;;
14316;SDS011;7242;50.858;6.586;2023-02-01T01:56:16;16.73;;;7.40;;
14316;SDS011;7242;50.858;6.586;2023-02-01T01:59:17;15.97;;;7.67;;
14316;SDS011;7242;50.858;6.586;2023-02-01T02:02:19;17.07;;;7.43;;
14316;SDS011;7242;50.858;6.586;2023-02-01T02:05:20;16.27;;;6.93;;
14316;SDS011;7242;50.858;6.586;2023-02-01T02:08:21;15.93;;;7.00;;
14316;SDS011;7242;50.858;6.586;2023-02-01T02:11:25;16.57;;;7.20;;
14316;SDS011;7242;50.858;6.586;2023-02-01T02:14:25;18.77;;;6.70;;
14316;SDS011;7242;50.858;6.586;2023-02-01T02:20:53;18.87;;;6.60;;
14316;SDS011;7242;50.858;6.586;2023-02-01T02:24:28;17.80;;;6.50;;
14316;SDS011;7242;50.858;6.586;2023-02-01T02:31:53;18.20;;;6.00;;
14316;SDS011;7242;50.858;6.586;2023-02-01T02:41:13;19.60;;;6.07;;
14316;SDS011;7242;50.858;6.586;2023-02-01T02:44:45;16.60;;;5.97;;
14316;SDS011;7242;50.858;6.586;2023-02-01T02:48:10;19.10;;;5.80;;
14316;SDS011;7242;50.858;6.586;2023-02-01T02:51:50;17.27;;;5.97;;
14316;SDS011;7242;50.858;6.586;2023-02-01T02:55:17;16.53;;;6.43;;
14316;SDS011;7242;50.858;6.586;2023-02-01T02:58:20;16.00;;;6.13;;
14316;SDS011;7242;50.858;6.586;2023-02-01T03:01:40;17.40;;;6.03;;
14316;SDS011;7242;50.858;6.586;2023-02-01T03:05:00;19.03;;;5.60;;
14316;SDS011;7242;50.858;6.586;2023-02-01T03:11:05;16.70;;;5.73;;
14316;SDS011;7242;50.858;6.586;2023-02-01T03:14:10;17.83;;;5.80;;
14316;SDS011;7242;50.858;6.586;2023-02-01T03:17:14;15.20;;;5.60;;
14316;SDS011;7242;50.858;6.586;2023-02-01T03:20:18;16.67;;;5.97;;
14316;SDS011;7242;50.858;6.586;2023-02-01T03:23:21;18.20;;;5.63;;
14316;SDS011;7242;50.858;6.586;2023-02-01T03:26:25;19.17;;;6.17;;
14316;SDS011;7242;50.858;6.586;2023-02-01T03:29:30;18.50;;;5.70;;
14316;SDS011;7242;50.858;6.586;2023-02-01T03:32:38;19.40;;;6.17;;
14316;SDS011;7242;50.858;6.586;2023-02-01T03:36:15;16.47;;;6.50;;
14316;SDS011;7242;50.858;6.586;2023-02-01T03:39:25;14.77;;;6.37;;
14316;SDS011;7242;50.858;6.586;2023-02-01T03:45:38;17.60;;;6.67;;
14316;SDS011;7242;50.858;6.586;2023-02-01T03:48:43;18.40;;;7.10;;
14316;SDS011;7242;50.858;6.586;2023-02-01T03:51:45;17.70;;;6.70;;
14316;SDS011;7242;50.858;6.586;2023-02-01T03:54:48;19.30;;;7.53;;
14316;SDS011;7242;50.858;6.586;2023-02-01T03:57:59;20.43;;;7.43;;
14316;SDS011;7242;50.858;6.586;2023-02-01T04:01:11;18.13;;;7.53;;
14316;SDS011;7242;50.858;6.586;2023-02-01T04:04:13;17.93;;;7.13;;
14316;SDS011;7242;50.858;6.586;2023-02-01T04:07:21;20.37;;;7.47;;
14316;SDS011;7242;50.858;6.586;2023-02-01T04:10:22;21.07;;;6.80;;
14316;SDS011;7242;50.858;6.586;2023-02-01T04:13:23;22.17;;;7.43;;
14316;SDS011;7242;50.858;6.586;2023-02-01T04:16:23;24.30;;;7.17;;
14316;SDS011;7242;50.858;6.586;2023-02-01T04:19:24;17.43;;;5.87;;
14316;SDS011;7242;50.858;6.586;2023-02-01T04:22:25;17.83;;;6.13;;
14316;SDS011;7242;50.858;6.586;2023-02-01T04:25:26;20.10;;;6.17;;
14316;SDS011;7242;50.858;6.586;2023-02-01T04:28:27;16.97;;;5.47;;
14316;SDS011;7242;50.858;6.586;2023-02-01T04:31:28;14.17;;;5.67;;
14316;SDS011;7242;50.858;6.586;2023-02-01T04:34:29;16.77;;;5.73;;
14316;SDS011;7242;50.858;6.586;2023-02-01T04:37:29;21.83;;;6.23;;
14316;SDS011;7242;50.858;6.586;2023-02-01T04:40:31;15.63;;;5.43;;
14316;SDS011;7242;50.858;6.586;2023-02-01T04:43:31;17.50;;;5.63;;
14316;SDS011;7242;50.858;6.586;2023-02-01T04:46:32;18.37;;;5.27;;
14316;SDS011;7242;50.858;6.586;2023-02-01T04:49:33;16.13;;;4.90;;
14316;SDS011;7242;50.858;6.586;2023-02-01T04:52:34;15.37;;;4.77;;
14316;SDS011;7242;50.858;6.586;2023-02-01T04:55:35;19.27;;;4.63;;
14316;SDS011;7242;50.858;6.586;2023-02-01T04:58:36;15.20;;;4.73;;
14316;SDS011;7242;50.858;6.586;2023-02-01T05:01:37;16.67;;;4.40;;
14316;SDS011;7242;50.858;6.586;2023-02-01T05:04:38;15.43;;;4.73;;
14316;SDS011;7242;50.858;6.586;2023-02-01T05:07:39;16.50;;;5.00;;
14316;SDS011;7242;50.858;6.586;2023-02-01T05:10:40;18.63;;;4.33;;
14316;SDS011;7242;50.858;6.586;2023-02-01T05:13:41;14.70;;;4.30;;
14316;SDS011;7242;50.858;6.586;2023-02-01T05:16:48;17.57;;;4.60;;
14316;SDS011;7242;50.858;6.586;2023-02-01T05:19:48;19.07;;;4.50;;
14316;SDS011;7242;50.858;6.586;2023-02-01T05:22:49;14.90;;;4.43;;
14316;SDS011;7242;50.858;6.586;2023-02-01T05:25:50;19.10;;;4.63;;
14316;SDS011;7242;50.858;6.586;2023-02-01T05:28:51;20.03;;;4.53;;
14316;SDS011;7242;50.858;6.586;2023-02-01T05:31:52;15.83;;;4.30;;
14316;SDS011;7242;50.858;6.586;2023-02-01T05:34:53;14.97;;;4.10;;
14316;SDS011;7242;50.858;6.586;2023-02-01T05:37:53;15.87;;;3.87;;
14316;SDS011;7242;50.858;6.586;2023-02-01T05:40:55;11.00;;;3.70;;
14316;SDS011;7242;50.858;6.586;2023-02-01T05:43:56;15.87;;;4.03;;
14316;SDS011;7242;50.858;6.586;2023-02-01T05:46:57;14.47;;;3.93;;
14316;SDS011;7242;50.858;6.586;2023-02-01T05:49:57;18.17;;;4.27;;
14316;SDS011;7242;50.858;6.586;2023-02-01T05:52:58;16.23;;;4.30;;
14316;SDS011;7242;50.858;6.586;2023-02-01T05:55:59;16.47;;;3.77;;
14316;SDS011;7242;50.858;6.586;2023-02-01T05:59:00;18.43;;;4.27;;
14316;SDS011;7242;50.858;6.586;2023-02-01T06:02:00;15.73;;;4.67;;
14316;SDS011;7242;50.858;6.586;2023-02-01T06:05:01;19.43;;;4.77;;
14316;SDS011;7242;50.858;6.586;2023-02-01T06:08:02;17.20;;;4.07;;
14316;SDS011;7242;50.858;6.586;2023-02-01T06:11:04;15.67;;;3.73;;
14316;SDS011;7242;50.858;6.586;2023-02-01T06:14:05;18.57;;;4.40;;
14316;SDS011;7242;50.858;6.586;2023-02-01T06:17:07;14.83;;;4.10;;
14316;SDS011;7242;50.858;6.586;2023-02-01T06:20:09;14.70;;;3.90;;
14316;SDS011;7242;50.858;6.586;2023-02-01T06:23:10;20.00;;;4.27;;
14316;SDS011;7242;50.858;6.586;2023-02-01T06:26:11;16.33;;;4.03;;
14316;SDS011;7242;50.858;6.586;2023-02-01T06:29:12;17.47;;;3.97;;
14316;SDS011;7242;50.858;6.586;2023-02-01T06:32:13;15.77;;;4.23;;
14316;SDS011;7242;50.858;6.586;2023-02-01T06:35:14;17.43;;;3.70;;
14316;SDS011;7242;50.858;6.586;2023-02-01T06:38:16;19.27;;;4.60;;
14316;SDS011;7242;50.858;6.586;2023-02-01T06:41:17;16.10;;;4.07;;
14316;SDS011;7242;50.858;6.586;2023-02-01T06:44:20;16.63;;;4.20;;
14316;SDS011;7242;50.858;6.586;2023-02-01T06:47:21;14.90;;;3.83;;
14316;SDS011;7242;50.858;6.586;2023-02-01T06:50:21;12.23;;;3.67;;
14316;SDS011;7242;50.858;6.586;2023-02-01T06:53:23;20.30;;;4.43;;
14316;SDS011;7242;50.858;6.586;2023-02-01T06:56:24;12.30;;;3.93;;
14316;SDS011;7242;50.858;6.586;2023-02-01T06:59:25;11.97;;;4.10;;
14316;SDS011;7242;50.858;6.586;2023-02-01T07:02:26;18.50;;;4.83;;
14316;SDS011;7242;50.858;6.586;2023-02-01T07:05:27;13.93;;;4.27;;
14316;SDS011;7242;50.858;6.586;2023-02-01T07:08:28;16.93;;;4.80;;
14316;SDS011;7242;50.858;6.586;2023-02-01T07:11:30;20.83;;;4.77;;
14316;SDS011;7242;50.858;6.586;2023-02-01T07:14:32;16.73;;;3.97;;
14316;SDS011;7242;50.858;6.586;2023-02-01T07:17:32;18.63;;;4.20;;
14316;SDS011;7242;50.858;6.586;2023-02-01T07:20:33;17.95;;;4.65;;
14316;SDS011;7242;50.858;6.586;2023-02-01T07:23:34;16.53;;;3.90;;
14316;SDS011;7242;50.858;6.586;2023-02-01T07:26:35;16.50;;;4.40;;
14316;SDS011;7242;50.858;6.586;2023-02-01T07:29:36;17.83;;;4.37;;
14316;SDS011;7242;50.858;6.586;2023-02-01T07:32:37;17.23;;;4.83;;
14316;SDS011;7242;50.858;6.586;2023-02-01T07:35:38;15.83;;;3.80;;
14316;SDS011;7242;50.858;6.586;2023-02-01T07:38:38;16.50;;;4.13;;
14316;SDS011;7242;50.858;6.586;2023-02-01T07:41:39;16.20;;;3.93;;
14316;SDS011;7242;50.858;6.586;2023-02-01T07:44:40;16.27;;;4.53;;
14316;SDS011;7242;50.858;6.586;2023-02-01T07:47:41;16.73;;;4.23;;
14316;SDS011;7242;50.858;6.586;2023-02-01T07:50:41;19.07;;;4.93;;
14316;SDS011;7242;50.858;6.586;2023-02-01T07:53:43;12.70;;;4.03;;
14316;SDS011;7242;50.858;6.586;2023-02-01T07:56:44;20.80;;;4.43;;
14316;SDS011;7242;50.858;6.586;2023-02-01T07:59:45;13.47;;;3.90;;
14316;SDS011;7242;50.858;6.586;2023-02-01T08:03:12;17.83;;;4.17;;
14316;SDS011;7242;50.858;6.586;2023-02-01T08:06:13;15.33;;;4.03;;
14316;SDS011;7242;50.858;6.586;2023-02-01T08:09:14;15.30;;;4.20;;
14316;SDS011;7242;50.858;6.586;2023-02-01T08:12:15;17.73;;;4.30;;
14316;SDS011;7242;50.858;6.586;2023-02-01T08:15:16;17.57;;;4.33;;
14316;SDS011;7242;50.858;6.586;2023-02-01T08:18:17;14.47;;;3.97;;
14316;SDS011;7242;50.858;6.586;2023-02-01T08:21:19;14.77;;;4.33;;
14316;SDS011;7242;50.858;6.586;2023-02-01T08:24:25;21.10;;;4.77;;
14316;SDS011;7242;50.858;6.586;2023-02-01T08:27:26;17.90;;;4.43;;
14316;SDS011;7242;50.858;6.586;2023-02-01T08:30:27;17.33;;;4.33;;
14316;SDS011;7242;50.858;6.586;2023-02-01T08:33:28;16.97;;;4.57;;
14316;SDS011;7242;50.858;6.586;2023-02-01T08:36:29;19.80;;;4.53;;
14316;SDS011;7242;50.858;6.586;2023-02-01T08:39:31;16.97;;;3.80;;
14316;SDS011;7242;50.858;6.586;2023-02-01T08:42:31;13.33;;;3.80;;
14316;SDS011;7242;50.858;6.586;2023-02-01T08:45:59;16.83;;;3.70;;
14316;SDS011;7242;50.858;6.586;2023-02-01T08:48:59;14.87;;;4.00;;
14316;SDS011;7242;50.858;6.586;2023-02-01T08:52:00;12.73;;;3.57;;
14316;SDS011;7242;50.858;6.586;2023-02-01T08:55:01;17.57;;;4.13;;
14316;SDS011;7242;50.858;6.586;2023-02-01T08:58:02;15.33;;;3.67;;
14316;SDS011;7242;50.858;6.586;2023-02-01T09:01:06;17.60;;;4.03;;
14316;SDS011;7242;50.858;6.586;2023-02-01T09:04:09;12.90;;;3.93;;
14316;SDS011;7242;50.858;6.586;2023-02-01T09:07:09;13.27;;;4.23;;
14316;SDS011;7242;50.858;6.586;2023-02-01T09:10:11;15.30;;;3.97;;
14316;SDS011;7242;50.858;6.586;2023-02-01T09:13:11;15.57;;;3.63;;
14316;SDS011;7242;50.858;6.586;2023-02-01T09:16:13;20.57;;;4.00;;
14316;SDS011;7242;50.858;6.586;2023-02-01T09:19:14;18.23;;;4.13;;
14316;SDS011;7242;50.858;6.586;2023-02-01T09:22:15;15.83;;;4.30;;
14316;SDS011;7242;50.858;6.586;2023-02-01T09:25:16;18.50;;;4.50;;
14316;SDS011;7242;50.858;6.586;2023-02-01T09:28:17;17.53;;;4.00;;
14316;SDS011;7242;50.858;6.586;2023-02-01T09:31:18;15.03;;;3.90;;
14316;SDS011;7242;50.858;6.586;2023-02-01T09:34:19;19.43;;;4.13;;
14316;SDS011;7242;50.858;6.586;2023-02-01T09:37:21;17.27;;;4.17;;
14316;SDS011;7242;50.858;6.586;2023-02-01T09:40:22;15.27;;;4.07;;
14316;SDS011;7242;50.858;6.586;2023-02-01T09:46:47;17.70;;;3.90;;
14316;SDS011;7242;50.858;6.586;2023-02-01T09:49:51;15.40;;;3.87;;
14316;SDS011;7242;50.858;6.586;2023-02-01T09:52:57;16.93;;;4.07;;
14316;SDS011;7242;50.858;6.586;2023-02-01T09:56:24;16.87;;;4.10;;
14316;SDS011;7242;50.858;6.586;2023-02-01T09:59:49;17.37;;;4.27;;
14316;SDS011;7242;50.858;6.586;2023-02-01T10:02:56;17.23;;;3.77;;
14316;SDS011;7242;50.858;6.586;2023-02-01T10:06:20;15.00;;;3.83;;
14316;SDS011;7242;50.858;6.586;2023-02-01T10:09:58;14.90;;;3.90;;
14316;SDS011;7242;50.858;6.586;2023-02-01T10:19:29;17.90;;;4.00;;
14316;SDS011;7242;50.858;6.586;2023-02-01T10:22:40;17.67;;;3.77;;
14316;SDS011;7242;50.858;6.586;2023-02-01T10:25:53;12.87;;;3.80;;
14316;SDS011;7242;50.858;6.586;2023-02-01T10:29:00;13.40;;;3.73;;
14316;SDS011;7242;50.858;6.586;2023-02-01T10:32:03;12.33;;;3.83;;
14316;SDS011;7242;50.858;6.586;2023-02-01T10:35:13;14.70;;;3.83;;
14316;SDS011;7242;50.858;6.586;2023-02-01T10:38:25;15.53;;;3.73;;
14316;SDS011;7242;50.858;6.586;2023-02-01T10:41:30;15.93;;;4.40;;
14316;SDS011;7242;50.858;6.586;2023-02-01T10:44:32;16.83;;;4.33;;
14316;SDS011;7242;50.858;6.586;2023-02-01T10:47:40;12.93;;;3.87;;
14316;SDS011;7242;50.858;6.586;2023-02-01T10:50:51;17.43;;;3.90;;
14316;SDS011;7242;50.858;6.586;2023-02-01T10:54:03;14.87;;;3.87;;
14316;SDS011;7242;50.858;6.586;2023-02-01T10:57:22;15.37;;;3.67;;
14316;SDS011;7242;50.858;6.586;2023-02-01T11:00:26;15.00;;;4.30;;
14316;SDS011;7242;50.858;6.586;2023-02-01T11:06:40;15.90;;;3.77;;
14316;SDS011;7242;50.858;6.586;2023-02-01T11:09:49;19.67;;;4.63;;
14316;SDS011;7242;50.858;6.586;2023-02-01T11:12:54;14.13;;;3.90;;
14316;SDS011;7242;50.858;6.586;2023-02-01T11:15:55;14.17;;;3.57;;
14316;SDS011;7242;50.858;6.586;2023-02-01T11:18:57;14.23;;;3.93;;
14316;SDS011;7242;50.858;6.586;2023-02-01T11:21:59;13.57;;;3.67;;
14316;SDS011;7242;50.858;6.586;2023-02-01T11:25:01;15.53;;;3.70;;
14316;SDS011;7242;50.858;6.586;2023-02-01T11:28:09;15.53;;;3.87;;
14316;SDS011;7242;50.858;6.586;2023-02-01T11:31:12;17.17;;;4.20;;
14316;SDS011;7242;50.858;6.586;2023-02-01T11:34:16;15.33;;;3.77;;
14316;SDS011;7242;50.858;6.586;2023-02-01T11:40:37;13.30;;;3.83;;
14316;SDS011;7242;50.858;6.586;2023-02-01T11:43:49;12.87;;;3.87;;
14316;SDS011;7242;50.858;6.586;2023-02-01T11:50:19;13.37;;;4.00;;
14316;SDS011;7242;50.858;6.586;2023-02-01T11:53:54;16.37;;;4.10;;
14316;SDS011;7242;50.858;6.586;2023-02-01T12:07:14;13.10;;;3.47;;
14316;SDS011;7242;50.858;6.586;2023-02-01T12:20:43;12.27;;;3.97;;
14316;SDS011;7242;50.858;6.586;2023-02-01T12:40:38;13.60;;;4.00;;
14316;SDS011;7242;50.858;6.586;2023-02-01T12:43:54;14.00;;;4.60;;
14316;SDS011;7242;50.858;6.586;2023-02-01T12:47:04;16.13;;;5.17;;
14316;SDS011;7242;50.858;6.586;2023-02-01T12:50:26;16.70;;;5.73;;
14316;SDS011;7242;50.858;6.586;2023-02-01T12:57:20;13.63;;;5.23;;
14316;SDS011;7242;50.858;6.586;2023-02-01T13:03:29;21.43;;;8.43;;
14316;SDS011;7242;50.858;6.586;2023-02-01T13:06:37;20.27;;;8.83;;
14316;SDS011;7242;50.858;6.586;2023-02-01T13:09:57;19.07;;;5.80;;
14316;SDS011;7242;50.858;6.586;2023-02-01T13:13:31;15.30;;;4.20;;
14316;SDS011;7242;50.858;6.586;2023-02-01T13:16:50;14.17;;;3.70;;
14316;SDS011;7242;50.858;6.586;2023-02-01T13:20:02;14.20;;;4.07;;
14316;SDS011;7242;50.858;6.586;2023-02-01T13:23:14;16.17;;;6.00;;
14316;SDS011;7242;50.858;6.586;2023-02-01T13:26:16;16.03;;;6.07;;
14316;SDS011;7242;50.858;6.586;2023-02-01T13:29:17;12.73;;;4.03;;
14316;SDS011;7242;50.858;6.586;2023-02-01T13:35:45;12.60;;;4.10;;
14316;SDS011;7242;50.858;6.586;2023-02-01T13:42:19;12.90;;;3.70;;
14316;SDS011;7242;50.858;6.586;2023-02-01T13:45:25;16.33;;;4.87;;
14316;SDS011;7242;50.858;6.586;2023-02-01T13:48:29;15.37;;;4.47;;
14316;SDS011;7242;50.858;6.586;2023-02-01T13:51:42;16.27;;;5.90;;
14316;SDS011;7242;50.858;6.586;2023-02-01T13:54:45;17.83;;;5.43;;
14316;SDS011;7242;50.858;6.586;2023-02-01T13:57:48;24.83;;;10.83;;
14316;SDS011;7242;50.858;6.586;2023-02-01T14:00:50;10.70;;;4.37;;
14316;SDS011;7242;50.858;6.586;2023-02-01T14:04:44;15.40;;;4.20;;
14316;SDS011;7242;50.858;6.586;2023-02-01T14:11:07;13.50;;;3.47;;
14316;SDS011;7242;50.858;6.586;2023-02-01T14:14:46;17.33;;;3.70;;
14316;SDS011;7242;50.858;6.586;2023-02-01T14:17:48;13.57;;;3.10;;
14316;SDS011;7242;50.858;6.586;2023-02-01T14:20:49;12.33;;;3.27;;
14316;SDS011;7242;50.858;6.586;2023-02-01T14:26:54;11.83;;;2.80;;
14316;SDS011;7242;50.858;6.586;2023-02-01T14:29:57;11.37;;;3.17;;
14316;SDS011;7242;50.858;6.586;2023-02-01T14:33:14;13.03;;;3.30;;
14316;SDS011;7242;50.858;6.586;2023-02-01T14:36:20;10.27;;;3.10;;
14316;SDS011;7242;50.858;6.586;2023-02-01T14:39:31;10.27;;;3.00;;
14316;SDS011;7242;50.858;6.586;2023-02-01T14:42:42;12.57;;;3.43;;
14316;SDS011;7242;50.858;6.586;2023-02-01T14:45:48;11.00;;;3.33;;
14316;SDS011;7242;50.858;6.586;2023-02-01T14:48:50;9.97;;;3.10;;
14316;SDS011;7242;50.858;6.586;2023-02-01T14:51:52;13.70;;;3.00;;
14316;SDS011;7242;50.858;6.586;2023-02-01T14:54:54;11.47;;;2.77;;
14316;SDS011;7242;50.858;6.586;2023-02-01T14:57:57;11.82;;;3.50;;
14316;SDS011;7242;50.858;6.586;2023-02-01T15:01:02;10.73;;;2.60;;
14316;SDS011;7242;50.858;6.586;2023-02-01T15:04:16;9.57;;;2.67;;
14316;SDS011;7242;50.858;6.586;2023-02-01T15:07:18;11.13;;;3.27;;
14316;SDS011;7242;50.858;6.586;2023-02-01T15:10:19;8.83;;;2.67;;
14316;SDS011;7242;50.858;6.586;2023-02-01T15:13:23;9.10;;;2.60;;
14316;SDS011;7242;50.858;6.586;2023-02-01T15:16:26;9.87;;;2.80;;
14316;SDS011;7242;50.858;6.586;2023-02-01T15:19:27;12.63;;;3.23;;
14316;SDS011;7242;50.858;6.586;2023-02-01T15:22:29;7.03;;;2.37;;
14316;SDS011;7242;50.858;6.586;2023-02-01T15:25:37;9.60;;;2.50;;
14316;SDS011;7242;50.858;6.586;2023-02-01T15:28:38;10.03;;;2.40;;
14316;SDS011;7242;50.858;6.586;2023-02-01T15:31:40;10.93;;;2.77;;
14316;SDS011;7242;50.858;6.586;2023-02-01T15:34:47;8.67;;;2.30;;
14316;SDS011;7242;50.858;6.586;2023-02-01T15:37:49;10.10;;;2.77;;
14316;SDS011;7242;50.858;6.586;2023-02-01T15:40:54;9.17;;;2.50;;
14316;SDS011;7242;50.858;6.586;2023-02-01T15:44:19;13.40;;;2.83;;
14316;SDS011;7242;50.858;6.586;2023-02-01T15:47:29;9.13;;;2.50;;
14316;SDS011;7242;50.858;6.586;2023-02-01T15:50:31;11.00;;;2.73;;
14316;SDS011;7242;50.858;6.586;2023-02-01T15:53:32;9.80;;;2.53;;
14316;SDS011;7242;50.858;6.586;2023-02-01T15:56:36;13.77;;;3.03;;
14316;SDS011;7242;50.858;6.586;2023-02-01T15:59:42;9.30;;;2.70;;
14316;SDS011;7242;50.858;6.586;2023-02-01T16:02:51;10.93;;;2.83;;
14316;SDS011;7242;50.858;6.586;2023-02-01T16:05:57;10.70;;;3.60;;
14316;SDS011;7242;50.858;6.586;2023-02-01T16:09:03;9.60;;;3.20;;
14316;SDS011;7242;50.858;6.586;2023-02-01T16:15:35;13.30;;;3.27;;
14316;SDS011;7242;50.858;6.586;2023-02-01T16:18:36;13.63;;;3.30;;
14316;SDS011;7242;50.858;6.586;2023-02-01T16:21:36;14.13;;;3.27;;
14316;SDS011;7242;50.858;6.586;2023-02-01T16:24:37;10.37;;;3.30;;
14316;SDS011;7242;50.858;6.586;2023-02-01T16:27:38;14.60;;;3.20;;
14316;SDS011;7242;50.858;6.586;2023-02-01T16:30:39;12.87;;;3.20;;
14316;SDS011;7242;50.858;6.586;2023-02-01T16:33:40;14.17;;;3.07;;
14316;SDS011;7242;50.858;6.586;2023-02-01T16:36:40;14.97;;;3.60;;
14316;SDS011;7242;50.858;6.586;2023-02-01T16:39:41;12.30;;;3.70;;
14316;SDS011;7242;50.858;6.586;2023-02-01T16:42:42;11.33;;;3.23;;
14316;SDS011;7242;50.858;6.586;2023-02-01T16:45:44;13.93;;;3.50;;
14316;SDS011;7242;50.858;6.586;2023-02-01T16:48:51;12.33;;;3.57;;
14316;SDS011;7242;50.858;6.586;2023-02-01T16:52:01;14.67;;;4.27;;
14316;SDS011;7242;50.858;6.586;2023-02-01T16:55:04;18.20;;;7.20;;
14316;SDS011;7242;50.858;6.586;2023-02-01T16:58:11;14.43;;;4.60;;
14316;SDS011;7242;50.858;6.586;2023-02-01T17:01:13;16.03;;;4.50;;
14316;SDS011;7242;50.858;6.586;2023-02-01T17:04:15;17.50;;;4.37;;
14316;SDS011;7242;50.858;6.586;2023-02-01T17:07:17;12.57;;;3.97;;
14316;SDS011;7242;50.858;6.586;2023-02-01T17:10:22;13.83;;;4.20;;
14316;SDS011;7242;50.858;6.586;2023-02-01T17:13:25;19.00;;;4.73;;
14316;SDS011;7242;50.858;6.586;2023-02-01T17:16:27;17.03;;;4.17;;
14316;SDS011;7242;50.858;6.586;2023-02-01T17:19:30;13.87;;;3.77;;
14316;SDS011;7242;50.858;6.586;2023-02-01T17:22:32;16.27;;;4.37;;
14316;SDS011;7242;50.858;6.586;2023-02-01T17:25:33;15.47;;;3.87;;
14316;SDS011;7242;50.858;6.586;2023-02-01T17:28:34;18.37;;;4.67;;
14316;SDS011;7242;50.858;6.586;2023-02-01T17:31:37;16.07;;;4.23;;
14316;SDS011;7242;50.858;6.586;2023-02-01T17:34:41;17.23;;;4.93;;
14316;SDS011;7242;50.858;6.586;2023-02-01T17:37:42;13.90;;;4.00;;
14316;SDS011;7242;50.858;6.586;2023-02-01T17:40:43;14.83;;;4.07;;
14316;SDS011;7242;50.858;6.586;2023-02-01T17:43:44;16.73;;;4.40;;
14316;SDS011;7242;50.858;6.586;2023-02-01T17:46:45;12.33;;;3.70;;
14316;SDS011;7242;50.858;6.586;2023-02-01T17:49:45;14.30;;;3.93;;
14316;SDS011;7242;50.858;6.586;2023-02-01T17:52:50;11.20;;;3.80;;
14316;SDS011;7242;50.858;6.586;2023-02-01T17:55:51;15.10;;;4.40;;
14316;SDS011;7242;50.858;6.586;2023-02-01T17:58:52;12.07;;;4.00;;
14316;SDS011;7242;50.858;6.586;2023-02-01T18:01:54;13.43;;;4.17;;
14316;SDS011;7242;50.858;6.586;2023-02-01T18:04:59;16.77;;;4.67;;
14316;SDS011;7242;50.858;6.586;2023-02-01T18:08:01;15.30;;;4.20;;
14316;SDS011;7242;50.858;6.586;2023-02-01T18:11:02;13.50;;;4.40;;
14316;SDS011;7242;50.858;6.586;2023-02-01T18:14:03;18.43;;;4.30;;
14316;SDS011;7242;50.858;6.586;2023-02-01T18:17:04;15.40;;;4.00;;
14316;SDS011;7242;50.858;6.586;2023-02-01T18:20:04;17.03;;;4.50;;
14316;SDS011;7242;50.858;6.586;2023-02-01T18:23:08;15.50;;;3.93;;
14316;SDS011;7242;50.858;6.586;2023-02-01T18:26:16;19.70;;;4.77;;
14316;SDS011;7242;50.858;6.586;2023-02-01T18:29:17;17.37;;;4.60;;
14316;SDS011;7242;50.858;6.586;2023-02-01T18:32:18;11.37;;;4.10;;
14316;SDS011;7242;50.858;6.586;2023-02-01T18:38:20;16.57;;;4.63;;
14316;SDS011;7242;50.858;6.586;2023-02-01T18:41:21;16.57;;;4.43;;
14316;SDS011;7242;50.858;6.586;2023-02-01T18:44:23;20.23;;;4.27;;
14316;SDS011;7242;50.858;6.586;2023-02-01T18:47:23;14.50;;;4.60;;
14316;SDS011;7242;50.858;6.586;2023-02-01T18:50:25;16.80;;;4.90;;
14316;SDS011;7242;50.858;6.586;2023-02-01T18:53:28;15.23;;;4.20;;
14316;SDS011;7242;50.858;6.586;2023-02-01T18:56:29;15.30;;;4.37;;
14316;SDS011;7242;50.858;6.586;2023-02-01T18:59:30;18.83;;;4.77;;
14316;SDS011;7242;50.858;6.586;2023-02-01T19:02:31;16.07;;;4.53;;
14316;SDS011;7242;50.858;6.586;2023-02-01T19:05:32;10.87;;;3.77;;
14316;SDS011;7242;50.858;6.586;2023-02-01T19:08:33;14.50;;;4.47;;
14316;SDS011;7242;50.858;6.586;2023-02-01T19:11:34;14.50;;;4.13;;
14316;SDS011;7242;50.858;6.586;2023-02-01T19:14:35;19.17;;;4.30;;
14316;SDS011;7242;50.858;6.586;2023-02-01T19:17:36;14.30;;;4.03;;
14316;SDS011;7242;50.858;6.586;2023-02-01T19:20:37;16.87;;;4.13;;
14316;SDS011;7242;50.858;6.586;2023-02-01T19:23:40;14.87;;;4.47;;
14316;SDS011;7242;50.858;6.586;2023-02-01T19:26:41;15.57;;;4.43;;
14316;SDS011;7242;50.858;6.586;2023-02-01T19:29:42;15.37;;;3.97;;
14316;SDS011;7242;50.858;6.586;2023-02-01T19:32:46;15.37;;;3.97;;
14316;SDS011;7242;50.858;6.586;2023-02-01T19:35:47;16.40;;;4.70;;
14316;SDS011;7242;50.858;6.586;2023-02-01T19:38:48;12.10;;;3.73;;
14316;SDS011;7242;50.858;6.586;2023-02-01T19:41:48;18.33;;;4.30;;
14316;SDS011;7242;50.858;6.586;2023-02-01T19:44:49;12.13;;;3.93;;
14316;SDS011;7242;50.858;6.586;2023-02-01T19:47:50;16.80;;;4.00;;
14316;SDS011;7242;50.858;6.586;2023-02-01T19:50:51;16.33;;;4.60;;
14316;SDS011;7242;50.858;6.586;2023-02-01T19:53:53;18.47;;;3.93;;
14316;SDS011;7242;50.858;6.586;2023-02-01T19:56:54;14.80;;;4.50;;
14316;SDS011;7242;50.858;6.586;2023-02-01T19:59:55;16.77;;;4.17;;
14316;SDS011;7242;50.858;6.586;2023-02-01T20:02:56;14.07;;;4.17;;
14316;SDS011;7242;50.858;6.586;2023-02-01T20:05:58;13.57;;;3.83;;
14316;SDS011;7242;50.858;6.586;2023-02-01T20:09:01;16.50;;;4.10;;
14316;SDS011;7242;50.858;6.586;2023-02-01T20:12:01;13.17;;;3.67;;
14316;SDS011;7242;50.858;6.586;2023-02-01T20:15:03;15.33;;;4.20;;